Time;durP1;ratioP1;P1;durP2;ratioP2;P2;SDS_P1;SDS_P2;PMS_P1;PMS_P2;Temp;Humidity;BMP_temperature;BMP_pressure;BME280_temperature;BME280_humidity;BME280_pressure;Samples;Min_cycle;Max_cycle;Signal;HPM_P1;HPM_P2
2021/01/28 00:00:28;;;;;;;33.05;10.48;;;8.00;93.50;;;;;;5010689;28;20034;-77
2021/01/28 00:02:54;;;;;;;38.67;11.55;;;8.00;93.50;;;;;;5009847;28;20418;-75
2021/01/28 00:05:21;;;;;;;28.52;8.88;;;8.00;93.50;;;;;;5009303;28;20033;-76
2021/01/28 00:07:47;;;;;;;31.55;9.55;;;8.00;93.50;;;;;;5011093;28;20022;-76
2021/01/28 00:10:14;;;;;;;40.53;12.25;;;8.10;93.50;;;;;;5010328;28;20096;-77
2021/01/28 00:12:40;;;;;;;29.00;8.45;;;8.10;93.50;;;;;;5011092;28;20373;-77
2021/01/28 00:15:07;;;;;;;34.67;10.27;;;8.10;93.50;;;;;;5015038;28;20037;-76
2021/01/28 00:17:33;;;;;;;29.73;8.27;;;8.10;93.50;;;;;;5013341;28;20054;-76
2021/01/28 00:19:59;;;;;;;31.63;9.48;;;8.10;93.40;;;;;;5014316;28;20076;-76
2021/01/28 00:22:25;;;;;;;40.42;9.98;;;8.10;93.40;;;;;;5015166;28;20425;-75
2021/01/28 00:24:51;;;;;;;26.50;7.88;;;8.10;93.40;;;;;;5014270;28;20065;-76
2021/01/28 00:27:17;;;;;;;35.95;8.68;;;8.10;93.40;;;;;;5013443;28;20026;-76
2021/01/28 00:29:43;;;;;;;34.42;10.05;;;8.10;93.40;;;;;;5015343;28;20033;-76
2021/01/28 00:32:08;;;;;;;28.98;8.63;;;8.10;93.40;;;;;;5014117;28;20026;-76
2021/01/28 00:34:34;;;;;;;32.33;9.40;;;8.10;93.40;;;;;;5013229;28;20018;-76
2021/01/28 00:37:00;;;;;;;33.40;9.15;;;8.10;93.40;;;;;;5013723;28;20022;-76
2021/01/28 00:39:26;;;;;;;40.72;10.80;;;8.10;93.40;;;;;;5013201;28;20108;-76
2021/01/28 00:41:51;;;;;;;28.35;9.55;;;8.10;93.40;;;;;;5013885;28;20472;-76
2021/01/28 00:44:17;;;;;;;35.28;8.20;;;8.10;93.40;;;;;;5014967;28;20533;-76
2021/01/28 00:46:43;;;;;;;29.67;9.85;;;8.10;93.40;;;;;;5014657;28;20145;-76
2021/01/28 00:49:09;;;;;;;35.28;9.30;;;8.10;93.40;;;;;;5014157;28;20018;-76
2021/01/28 00:51:34;;;;;;;26.20;9.30;;;8.20;93.40;;;;;;5014467;28;20382;-76
2021/01/28 00:54:00;;;;;;;32.50;10.85;;;8.10;93.30;;;;;;5013571;28;20026;-76
2021/01/28 00:56:25;;;;;;;33.33;10.00;;;8.20;93.40;;;;;;5014319;28;20021;-77
2021/01/28 00:58:51;;;;;;;34.80;11.57;;;8.10;93.40;;;;;;5013654;28;20024;-76
2021/01/28 01:01:17;;;;;;;29.30;9.98;;;8.10;93.40;;;;;;5012934;28;20129;-76
2021/01/28 01:03:43;;;;;;;29.92;10.10;;;8.10;93.40;;;;;;5014868;28;20026;-77
2021/01/28 01:06:09;;;;;;;35.85;8.35;;;8.10;93.40;;;;;;5014646;28;20022;-75
2021/01/28 01:08:35;;;;;;;31.13;10.25;;;8.10;93.50;;;;;;5014039;28;20460;-76
2021/01/28 01:11:10;;;;;;;43.72;9.35;;;8.10;93.50;;;;;;5014243;28;20060;-75
2021/01/28 01:13:38;;;;;;;31.80;8.15;;;8.10;93.50;;;;;;5012321;28;20029;-75
2021/01/28 01:16:07;;;;;;;33.20;10.07;;;8.10;93.40;;;;;;5014744;28;20042;-76
2021/01/28 01:18:34;;;;;;;44.35;10.68;;;8.10;93.70;;;;;;5014028;28;20024;-76
2021/01/28 01:21:02;;;;;;;31.60;8.68;;;8.10;93.40;;;;;;5012970;28;20030;-76
2021/01/28 01:23:28;;;;;;;31.38;9.43;;;8.10;93.40;;;;;;5013515;28;20022;-76
2021/01/28 01:25:54;;;;;;;30.05;8.90;;;8.10;93.40;;;;;;5014605;28;20421;-76
2021/01/28 01:28:20;;;;;;;37.10;9.82;;;8.20;93.40;;;;;;5013800;28;20026;-76
2021/01/28 01:30:45;;;;;;;33.83;8.57;;;8.10;93.40;;;;;;5013998;28;20367;-76
2021/01/28 01:33:11;;;;;;;32.30;9.25;;;8.20;93.40;;;;;;5012710;28;20022;-75
2021/01/28 01:35:38;;;;;;;34.88;10.27;;;8.20;93.30;;;;;;5013369;28;20080;-76
2021/01/28 01:38:04;;;;;;;35.58;8.88;;;8.10;93.40;;;;;;5013787;28;20034;-76
2021/01/28 01:40:34;;;;;;;35.85;8.75;;;8.10;93.40;;;;;;5013122;28;20034;-76
2021/01/28 01:43:01;;;;;;;37.03;8.88;;;8.10;93.40;;;;;;5014407;28;20058;-76
2021/01/28 01:45:38;;;;;;;27.63;9.70;;;8.20;93.40;;;;;;4995598;28;20530;-76
2021/01/28 01:48:07;;;;;;;22.17;7.13;;;8.20;93.40;;;;;;4996518;28;20025;-76
2021/01/28 01:50:54;;;;;;;36.53;8.23;;;8.20;93.40;;;;;;5013193;28;20029;-76
2021/01/28 01:53:22;;;;;;;29.80;8.02;;;8.30;93.30;;;;;;5013093;28;20044;-77
2021/01/28 01:55:54;;;;;;;29.05;7.55;;;8.20;93.30;;;;;;4996070;28;20033;-76
2021/01/28 01:58:55;;;;;;;37.47;8.98;;;8.20;93.30;;;;;;4995423;28;20022;-77
2021/01/28 02:01:25;;;;;;;35.00;9.00;;;8.30;93.30;;;;;;4992012;28;20049;-77
2021/01/28 02:03:53;;;;;;;36.03;8.38;;;8.30;93.30;;;;;;5013514;28;20532;-76
2021/01/28 02:06:27;;;;;;;33.97;8.38;;;8.20;93.30;;;;;;4995780;28;20022;-76
2021/01/28 02:08:56;;;;;;;38.67;8.63;;;8.30;93.30;;;;;;4995790;28;20028;-76
2021/01/28 02:11:22;;;;;;;33.40;7.93;;;8.20;93.30;;;;;;4995141;28;20067;-77
2021/01/28 02:13:50;;;;;;;35.65;9.40;;;8.30;93.30;;;;;;4995764;28;20021;-77
2021/01/28 02:16:19;;;;;;;35.90;9.68;;;8.20;93.20;;;;;;5013400;28;20470;-76
2021/01/28 02:18:45;;;;;;;41.92;8.82;;;8.20;93.20;;;;;;5013201;28;20025;-77
2021/01/28 02:21:27;;;;;;;30.10;8.35;;;8.30;93.30;;;;;;4995635;28;20374;-76
2021/01/28 02:24:07;;;;;;;37.85;7.82;;;8.30;93.30;;;;;;4995803;28;20422;-77
2021/01/28 02:26:34;;;;;;;42.47;9.73;;;8.30;93.30;;;;;;5012604;28;20114;-77
2021/01/28 02:29:00;;;;;;;39.28;8.23;;;8.30;93.20;;;;;;4995343;28;20260;-77
2021/01/28 02:31:28;;;;;;;44.30;8.90;;;8.30;93.20;;;;;;5012719;28;20470;-77
2021/01/28 02:33:57;;;;;;;35.92;8.90;;;8.30;93.20;;;;;;5012898;28;20101;-77
2021/01/28 02:36:38;;;;;;;34.88;7.72;;;8.30;93.20;;;;;;4994109;28;20021;-77
2021/01/28 02:39:07;;;;;;;38.47;7.80;;;8.30;93.10;;;;;;4995110;28;20058;-76
2021/01/28 02:41:33;;;;;;;33.40;7.72;;;8.30;93.10;;;;;;4999626;28;20077;-77
2021/01/28 02:43:59;;;;;;;31.98;8.20;;;8.30;93.10;;;;;;5011562;28;20037;-76
2021/01/28 02:46:26;;;;;;;48.63;9.57;;;8.30;93.10;;;;;;5012279;28;20054;-77
2021/01/28 02:48:52;;;;;;;40.47;9.15;;;8.30;93.20;;;;;;5011513;28;20488;-77
2021/01/28 02:51:21;;;;;;;38.13;7.45;;;8.30;93.20;;;;;;5012660;28;20040;-77
2021/01/28 02:53:52;;;;;;;42.25;8.68;;;8.30;93.20;;;;;;5011698;28;20033;-75
2021/01/28 02:56:18;;;;;;;45.35;9.27;;;8.30;93.20;;;;;;5011569;28;20029;-75
2021/01/28 02:58:44;;;;;;;54.22;9.07;;;8.30;93.10;;;;;;5010424;28;20141;-75
2021/01/28 03:01:11;;;;;;;33.25;8.48;;;8.30;93.10;;;;;;5011205;28;20534;-76
2021/01/28 03:03:37;;;;;;;54.97;10.82;;;8.30;93.10;;;;;;5012132;28;20036;-75
2021/01/28 03:06:04;;;;;;;49.38;9.52;;;8.30;93.10;;;;;;5012609;28;20061;-76
2021/01/28 03:08:30;;;;;;;55.45;10.63;;;8.30;93.10;;;;;;5012050;28;20068;-76
2021/01/28 03:10:56;;;;;;;33.10;7.95;;;8.30;93.00;;;;;;5011050;28;20462;-75
2021/01/28 03:13:23;;;;;;;40.15;9.35;;;8.30;93.00;;;;;;5011007;28;20033;-75
2021/01/28 03:15:49;;;;;;;41.13;9.35;;;8.40;93.00;;;;;;5011727;28;20033;-75
2021/01/28 03:18:15;;;;;;;39.38;9.50;;;8.30;93.00;;;;;;5012366;28;20083;-75
2021/01/28 03:20:41;;;;;;;41.65;8.77;;;8.30;93.00;;;;;;5011348;28;20041;-76
2021/01/28 03:23:09;;;;;;;54.42;10.88;;;8.30;93.00;;;;;;5010986;28;20025;-75
2021/01/28 03:25:35;;;;;;;49.25;10.10;;;8.40;93.00;;;;;;5026874;28;20033;-76
2021/01/28 03:28:01;;;;;;;57.35;10.52;;;8.40;93.10;;;;;;5012048;28;20022;-75
2021/01/28 03:30:34;;;;;;;39.63;9.85;;;8.40;93.00;;;;;;5011792;28;20549;-76
2021/01/28 03:33:02;;;;;;;50.03;10.93;;;8.40;93.10;;;;;;5010848;28;20022;-75
2021/01/28 03:35:28;;;;;;;65.68;11.55;;;8.40;93.00;;;;;;5011495;28;20026;-75
2021/01/28 03:37:53;;;;;;;47.13;8.55;;;8.40;93.00;;;;;;5010950;28;20029;-75
2021/01/28 03:40:23;;;;;;;55.22;9.82;;;8.40;93.00;;;;;;5011753;28;20062;-76
2021/01/28 03:42:48;;;;;;;63.58;9.13;;;8.40;93.00;;;;;;5009602;28;20082;-75
2021/01/28 03:45:15;;;;;;;63.22;11.95;;;8.40;93.00;;;;;;5010297;28;20046;-77
2021/01/28 03:47:41;;;;;;;71.28;11.45;;;8.40;93.00;;;;;;5011954;28;20101;-76
2021/01/28 03:50:07;;;;;;;65.30;11.07;;;8.40;93.00;;;;;;5015548;28;20049;-77
2021/01/28 03:52:33;;;;;;;49.60;7.38;;;8.40;93.00;;;;;;5014865;28;20033;-77
2021/01/28 03:54:59;;;;;;;57.15;10.38;;;8.40;93.00;;;;;;5015003;28;20022;-76
2021/01/28 03:57:25;;;;;;;78.78;11.27;;;8.40;93.00;;;;;;5014010;28;20053;-76
2021/01/28 03:59:51;;;;;;;62.63;11.68;;;8.40;93.00;;;;;;5013579;28;20353;-76
2021/01/28 04:02:16;;;;;;;73.95;11.57;;;8.40;93.00;;;;;;5013771;28;20443;-76
2021/01/28 04:04:42;;;;;;;50.88;10.45;;;8.40;93.00;;;;;;5014505;28;20026;-77
2021/01/28 04:07:07;;;;;;;59.50;12.60;;;8.40;93.10;;;;;;5013605;28;20052;-77
2021/01/28 04:09:33;;;;;;;31.58;8.27;;;8.40;93.00;;;;;;5029520;28;20029;-76
2021/01/28 04:11:59;;;;;;;61.83;11.25;;;8.40;93.10;;;;;;5013729;28;20378;-76
2021/01/28 04:14:24;;;;;;;46.63;9.30;;;8.40;93.00;;;;;;5013597;28;20437;-75
2021/01/28 04:16:50;;;;;;;27.48;6.13;;;8.40;93.00;;;;;;5013566;28;20041;-76
2021/01/28 04:19:16;;;;;;;29.42;6.65;;;8.40;93.10;;;;;;5014403;28;20028;-76
2021/01/28 04:21:41;;;;;;;31.10;7.10;;;8.40;93.00;;;;;;5013513;28;20497;-75
2021/01/28 04:24:07;;;;;;;29.15;7.20;;;8.40;93.00;;;;;;5014251;28;20029;-77
2021/01/28 04:26:34;;;;;;;29.35;6.03;;;8.40;93.00;;;;;;5013580;28;20350;-76
2021/01/28 04:29:02;;;;;;;18.73;5.18;;;8.40;93.00;;;;;;5014310;28;20036;-75
2021/01/28 04:31:28;;;;;;;16.52;4.65;;;8.40;93.00;;;;;;5014929;28;20032;-78
2021/01/28 04:33:54;;;;;;;17.75;4.57;;;8.40;93.10;;;;;;5013944;28;20109;-76
2021/01/28 04:36:20;;;;;;;13.73;4.18;;;8.30;93.00;;;;;;5015315;28;20077;-76
2021/01/28 04:38:45;;;;;;;16.55;4.60;;;8.30;93.00;;;;;;5014545;28;20026;-75
2021/01/28 04:41:18;;;;;;;13.90;3.97;;;8.30;93.00;;;;;;5015179;28;20474;-76
2021/01/28 04:43:48;;;;;;;14.85;5.18;;;8.30;93.00;;;;;;4977556;28;20402;-75
2021/01/28 04:46:29;;;;;;;26.27;4.32;;;8.30;93.00;;;;;;4995471;28;20034;-75
2021/01/28 04:48:57;;;;;;;16.95;3.92;;;8.20;93.00;;;;;;4978148;28;20026;-76
2021/01/28 04:51:31;;;;;;;15.82;3.28;;;8.20;93.00;;;;;;4995965;28;20042;-75
2021/01/28 04:54:25;;;;;;;8.88;2.97;;;8.20;93.00;;;;;;4978357;28;20364;-75
2021/01/28 04:56:51;;;;;;;9.90;3.17;;;8.20;92.90;;;;;;4972102;28;20061;-75
2021/01/28 04:59:26;;;;;;;10.82;3.45;;;8.20;93.00;;;;;;4995641;28;20030;-76
2021/01/28 05:01:53;;;;;;;6.95;2.72;;;8.10;93.00;;;;;;4978499;28;20356;-75
2021/01/28 05:04:20;;;;;;;14.43;3.45;;;8.10;93.00;;;;;;4979517;28;20022;-78
2021/01/28 05:06:51;;;;;;;7.45;2.50;;;8.10;93.00;;;;;;5009796;28;20027;-75
2021/01/28 05:09:17;;;;;;;;;;;8.10;93.00;;;;;;4991736;28;20106;-75
2021/01/28 05:11:57;;;;;;;9.13;3.28;;;8.00;93.00;;;;;;4987281;28;19920;-75
2021/01/28 05:14:29;;;;;;;13.60;2.92;;;8.10;92.90;;;;;;4990964;28;20348;-76
2021/01/28 05:17:00;;;;;;;11.73;2.67;;;8.00;92.90;;;;;;5006389;28;20097;-76
2021/01/28 05:19:41;;;;;;;11.20;3.85;;;8.00;92.90;;;;;;5026006;28;20025;-75
2021/01/28 05:22:25;;;;;;;8.15;2.90;;;8.00;92.90;;;;;;4996294;28;20061;-76
2021/01/28 05:24:54;;;;;;;10.25;3.45;;;8.00;92.90;;;;;;5013536;28;20066;-76
2021/01/28 05:27:33;;;;;;;7.90;2.25;;;8.00;92.90;;;;;;4996580;28;20022;-75
2021/01/28 05:30:01;;;;;;;8.10;2.78;;;8.00;92.90;;;;;;5014481;28;20029;-76
2021/01/28 05:32:46;;;;;;;7.43;2.33;;;7.90;92.90;;;;;;5014076;28;20022;-76
2021/01/28 05:35:23;;;;;;;8.38;2.38;;;8.00;93.00;;;;;;4996779;28;20386;-76
2021/01/28 05:38:01;;;;;;;6.68;2.53;;;7.90;93.00;;;;;;5013977;28;20026;-76
2021/01/28 05:40:27;;;;;;;6.82;2.15;;;7.90;92.90;;;;;;5014554;28;20032;-76
2021/01/28 05:42:53;;;;;;;8.98;1.77;;;7.90;92.90;;;;;;5019436;28;20256;-76
2021/01/28 05:45:22;;;;;;;7.57;2.28;;;7.90;92.90;;;;;;5034147;28;20033;-76
2021/01/28 05:47:50;;;;;;;3.92;1.60;;;7.90;92.90;;;;;;5030677;28;20470;-78
2021/01/28 05:50:21;;;;;;;4.00;1.67;;;7.90;92.90;;;;;;5030470;28;20053;-80
2021/01/28 05:52:47;;;;;;;6.38;2.13;;;7.90;92.90;;;;;;5031848;28;20032;-78
2021/01/28 05:55:17;;;;;;;5.97;1.42;;;7.90;92.90;;;;;;5030291;28;20030;-79
2021/01/28 05:58:01;;;;;;;4.10;1.48;;;7.90;92.90;;;;;;5031115;28;20071;-77
2021/01/28 06:00:53;;;;;;;8.57;1.75;;;7.80;92.90;;;;;;5030277;28;20033;-79
2021/01/28 06:03:43;;;;;;;5.78;1.20;;;7.90;92.90;;;;;;5031532;28;20021;-79
2021/01/28 06:06:46;;;;;;;2.47;1.20;;;7.80;93.00;;;;;;5030099;28;20420;-79
2021/01/28 06:09:30;;;;;;;4.75;1.10;;;7.80;93.00;;;;;;5031078;28;20026;-77
2021/01/28 06:12:23;;;;;;;3.53;1.00;;;7.70;93.00;;;;;;5030238;28;20033;-79
2021/01/28 06:15:01;;;;;;;5.65;1.60;;;7.70;93.00;;;;;;5030135;28;20026;-78
2021/01/28 06:17:47;;;;;;;3.58;1.40;;;7.70;93.00;;;;;;5031520;28;20032;-79
2021/01/28 06:20:32;;;;;;;3.97;1.40;;;7.70;93.10;;;;;;5029907;28;20041;-79
2021/01/28 06:23:15;;;;;;;3.85;1.52;;;7.60;93.00;;;;;;5028949;28;20454;-78
2021/01/28 06:26:05;;;;;;;2.10;0.90;;;7.60;93.10;;;;;;5029394;28;20029;-79
2021/01/28 06:28:34;;;;;;;3.70;1.33;;;7.60;93.10;;;;;;5033337;28;20083;-76
2021/01/28 06:31:39;;;;;;;3.03;0.88;;;7.60;93.10;;;;;;5031030;28;20036;-75
2021/01/28 06:34:28;;;;;;;17.52;2.63;;;7.60;93.10;;;;;;5021186;28;20076;-76
2021/01/28 06:37:12;;;;;;;2.78;1.40;;;7.60;93.10;;;;;;5030880;28;20026;-75
2021/01/28 06:39:50;;;;;;;3.65;1.40;;;7.60;93.10;;;;;;5032151;28;20021;-76
2021/01/28 06:42:35;;;;;;;4.97;1.45;;;7.60;93.20;;;;;;5030780;28;20152;-76
2021/01/28 06:45:10;;;;;;;4.85;1.40;;;7.60;93.20;;;;;;5031783;28;20026;-76
2021/01/28 06:47:54;;;;;;;3.35;1.10;;;7.60;93.20;;;;;;5031242;28;20021;-76
2021/01/28 06:50:29;;;;;;;4.95;1.50;;;7.50;93.20;;;;;;5031387;28;20036;-76
2021/01/28 06:53:14;;;;;;;5.72;1.60;;;7.50;93.20;;;;;;5032009;28;20025;-76
2021/01/28 06:55:57;;;;;;;3.60;1.42;;;7.50;93.20;;;;;;5031942;28;20116;-76
2021/01/28 06:58:54;;;;;;;2.90;1.48;;;7.60;93.20;;;;;;5031996;28;20425;-78
2021/01/28 07:01:31;;;;;;;19.38;2.83;;;7.50;93.20;;;;;;5032341;28;20065;-76
2021/01/28 07:04:19;;;;;;;3.95;1.42;;;7.50;93.30;;;;;;5031422;28;20035;-76
2021/01/28 07:07:15;;;;;;;9.65;1.90;;;7.50;93.30;;;;;;5031695;28;20022;-76
2021/01/28 07:09:58;;;;;;;24.40;5.63;;;7.50;93.20;;;;;;5031274;28;20464;-74
2021/01/28 07:12:41;;;;;;;26.15;4.45;;;7.50;93.30;;;;;;5030880;28;20033;-75
2021/01/28 07:15:09;;;;;;;6.18;1.88;;;7.40;93.30;;;;;;5031874;28;20022;-76
2021/01/28 07:17:47;;;;;;;9.65;2.53;;;7.40;93.30;;;;;;5032046;28;20025;-76
2021/01/28 07:20:35;;;;;;;8.88;1.60;;;7.50;93.40;;;;;;5030285;28;20396;-76
2021/01/28 07:23:40;;;;;;;7.15;2.88;;;7.50;93.30;;;;;;5029838;28;20126;-76
2021/01/28 07:26:18;;;;;;;6.35;1.63;;;7.40;93.30;;;;;;5010326;28;20041;-76
2021/01/28 07:28:47;;;;;;;3.83;1.67;;;7.40;93.30;;;;;;5029782;28;20021;-76
2021/01/28 07:31:41;;;;;;;6.00;2.85;;;7.40;93.30;;;;;;5031970;28;20082;-75
2021/01/28 07:34:11;;;;;;;6.60;1.58;;;7.40;93.30;;;;;;5030381;28;20028;-75
2021/01/28 07:36:41;;;;;;;7.07;1.83;;;7.40;93.30;;;;;;5031766;28;20533;-75
2021/01/28 07:39:29;;;;;;;10.40;2.10;;;7.40;93.30;;;;;;5031727;28;20029;-76
2021/01/28 07:42:01;;;;;;;5.80;2.05;;;7.40;93.30;;;;;;5029388;28;20045;-76
2021/01/28 07:44:26;;;;;;;6.43;1.80;;;7.40;93.30;;;;;;5030115;28;20068;-76
2021/01/28 07:46:54;;;;;;;5.70;1.85;;;7.40;93.40;;;;;;5030839;28;20029;-76
2021/01/28 07:49:28;;;;;;;9.57;2.30;;;7.40;93.30;;;;;;5030651;28;20030;-76
2021/01/28 07:52:03;;;;;;;7.50;1.95;;;7.40;93.40;;;;;;5029712;28;20025;-76
2021/01/28 07:54:28;;;;;;;5.35;3.05;;;7.40;93.40;;;;;;5031495;28;20027;-76
2021/01/28 07:57:11;;;;;;;6.35;2.40;;;7.40;93.40;;;;;;5031364;28;20021;-76
2021/01/28 07:59:40;;;;;;;4.93;2.03;;;7.40;93.40;;;;;;5030441;28;20093;-76
2021/01/28 08:02:29;;;;;;;7.75;2.20;;;7.40;93.40;;;;;;5031064;28;20171;-76
2021/01/28 08:05:03;;;;;;;4.47;1.70;;;7.40;93.40;;;;;;5029614;28;20032;-77
2021/01/28 08:07:34;;;;;;;4.45;1.52;;;7.30;93.30;;;;;;5030298;28;20116;-77
2021/01/28 08:10:04;;;;;;;4.07;1.50;;;7.40;93.40;;;;;;5029822;28;20025;-77
2021/01/28 08:12:35;;;;;;;3.45;1.58;;;7.30;93.40;;;;;;5030463;28;20022;-76
2021/01/28 08:15:08;;;;;;;6.32;1.40;;;7.40;93.40;;;;;;5030864;28;20026;-75
2021/01/28 08:17:34;;;;;;;4.82;1.70;;;7.30;93.40;;;;;;5029902;28;20056;-75
2021/01/28 08:20:23;;;;;;;3.40;1.27;;;7.40;93.40;;;;;;5029356;28;20053;-76
2021/01/28 08:23:23;;;;;;;3.58;1.23;;;7.40;93.40;;;;;;5029499;28;20450;-75
2021/01/28 08:25:58;;;;;;;4.18;1.50;;;7.40;93.40;;;;;;5030612;28;20477;-75
2021/01/28 08:28:26;;;;;;;6.22;1.75;;;7.40;93.40;;;;;;5030401;28;20026;-75
2021/01/28 08:31:19;;;;;;;4.43;1.65;;;7.30;93.40;;;;;;5030737;28;20064;-75
2021/01/28 08:33:49;;;;;;;5.95;1.50;;;7.40;93.40;;;;;;5032473;28;20045;-75
2021/01/28 08:36:29;;;;;;;6.10;2.08;;;7.40;93.40;;;;;;5033541;28;20025;-77
2021/01/28 08:39:07;;;;;;;8.07;1.85;;;7.40;93.40;;;;;;5034169;28;20018;-77
2021/01/28 08:41:33;;;;;;;4.63;1.58;;;7.30;93.50;;;;;;5033416;28;20079;-76
2021/01/28 08:44:00;;;;;;;8.82;1.90;;;7.30;93.50;;;;;;5034421;28;20426;-77
2021/01/28 08:46:26;;;;;;;5.32;1.90;;;7.30;93.50;;;;;;5034804;28;20026;-76
2021/01/28 08:49:05;;;;;;;3.88;2.03;;;7.30;93.50;;;;;;5016334;28;20067;-76
2021/01/28 08:51:31;;;;;;;6.53;2.28;;;7.30;93.50;;;;;;5034665;28;20026;-77
2021/01/28 08:54:03;;;;;;;2.45;1.38;;;7.30;93.50;;;;;;5033872;28;20039;-76
2021/01/28 08:56:36;;;;;;;3.92;1.45;;;7.30;93.50;;;;;;5034234;28;20457;-76
2021/01/28 08:59:04;;;;;;;5.35;1.30;;;7.30;93.50;;;;;;5033529;28;20059;-76
2021/01/28 09:01:39;;;;;;;5.75;1.42;;;7.30;93.50;;;;;;5016605;28;20438;-76
2021/01/28 09:04:22;;;;;;;3.15;1.17;;;7.30;93.40;;;;;;5033715;28;20034;-76
2021/01/28 09:06:48;;;;;;;5.50;1.73;;;7.30;93.40;;;;;;5034003;28;20111;-76
2021/01/28 09:09:45;;;;;;;2.45;0.93;;;7.30;93.50;;;;;;5034514;28;20099;-75
2021/01/28 09:12:28;;;;;;;2.85;1.02;;;7.30;93.40;;;;;;5002755;28;20064;-76
2021/01/28 09:15:30;;;;;;;3.50;1.30;;;7.40;93.50;;;;;;5015579;28;20164;-77
2021/01/28 09:18:03;;;;;;;;;;;7.40;93.40;;;;;;5016353;28;20528;-77
2021/01/28 09:20:33;;;;;;;7.93;1.55;;;7.30;93.40;;;;;;5034020;28;19913;-76
2021/01/28 09:23:17;;;;;;;2.90;1.20;;;7.40;93.40;;;;;;5015621;28;20473;-75
2021/01/28 09:25:44;;;;;;;3.30;1.10;;;7.40;93.30;;;;;;5016291;28;20030;-74
2021/01/28 09:28:24;;;;;;;4.25;1.27;;;7.40;93.40;;;;;;5015481;28;20022;-75
2021/01/28 09:30:52;;;;;;;5.22;1.60;;;7.40;93.40;;;;;;5033895;28;20033;-76
2021/01/28 09:33:22;;;;;;;8.90;1.50;;;7.40;93.40;;;;;;5033989;28;20022;-76
2021/01/28 09:36:04;;;;;;;3.22;1.20;;;7.40;93.40;;;;;;5016097;28;20045;-76
2021/01/28 09:38:29;;;;;;;6.47;1.58;;;7.40;93.40;;;;;;5034078;28;20032;-75
2021/01/28 09:41:08;;;;;;;2.75;1.42;;;7.40;93.50;;;;;;5033109;28;20025;-75
2021/01/28 09:43:35;;;;;;;4.50;1.40;;;7.40;93.50;;;;;;5032081;28;20489;-74
2021/01/28 09:46:29;;;;;;;5.22;1.77;;;7.40;93.50;;;;;;5034649;28;20025;-75
2021/01/28 09:48:58;;;;;;;6.25;1.98;;;7.40;93.40;;;;;;5035996;28;20082;-76
2021/01/28 09:51:32;;;;;;;5.18;1.50;;;7.50;93.50;;;;;;5033681;28;20086;-75
2021/01/28 09:54:23;;;;;;;8.25;1.98;;;7.50;93.40;;;;;;5031230;28;20036;-76
2021/01/28 09:56:49;;;;;;;9.17;1.83;;;7.50;93.40;;;;;;5034149;28;20037;-75
2021/01/28 09:59:15;;;;;;;5.30;1.40;;;7.40;93.40;;;;;;5031246;28;20269;-76
2021/01/28 10:01:45;;;;;;;5.60;1.50;;;7.40;93.50;;;;;;5031819;28;20034;-77
2021/01/28 10:04:14;;;;;;;5.28;2.08;;;7.50;93.50;;;;;;5032398;28;20052;-74
2021/01/28 10:06:39;;;;;;;6.38;2.03;;;7.50;93.50;;;;;;5033048;28;20434;-75
2021/01/28 10:09:06;;;;;;;4.03;1.38;;;7.50;93.50;;;;;;5032472;28;20040;-76
2021/01/28 10:11:33;;;;;;;4.60;1.52;;;7.50;93.50;;;;;;5033072;28;20033;-75
2021/01/28 10:13:59;;;;;;;6.47;1.70;;;7.50;93.50;;;;;;5031063;28;20057;-76
2021/01/28 10:16:27;;;;;;;4.05;1.95;;;7.50;93.50;;;;;;5033016;28;20021;-75
2021/01/28 10:18:52;;;;;;;4.18;1.67;;;7.50;93.50;;;;;;5031636;28;20025;-74
2021/01/28 10:21:18;;;;;;;5.43;1.67;;;7.50;93.60;;;;;;5032299;28;20478;-75
2021/01/28 10:23:44;;;;;;;3.20;1.58;;;7.50;93.60;;;;;;5032723;28;20354;-75
2021/01/28 10:26:09;;;;;;;7.78;2.10;;;7.50;93.60;;;;;;5030891;28;20022;-74
2021/01/28 10:28:35;;;;;;;4.35;1.73;;;7.50;93.60;;;;;;5031358;28;20025;-74
2021/01/28 10:31:02;;;;;;;5.80;1.90;;;7.50;93.70;;;;;;5032203;28;20112;-75
2021/01/28 10:33:29;;;;;;;3.85;1.13;;;7.50;93.70;;;;;;5031487;28;20021;-74
2021/01/28 10:35:56;;;;;;;3.83;1.83;;;7.50;93.70;;;;;;5032148;28;20071;-73
2021/01/28 10:38:21;;;;;;;4.05;1.45;;;7.60;94.10;;;;;;5031242;28;20061;-76
2021/01/28 10:40:48;;;;;;;3.08;1.27;;;7.50;93.80;;;;;;5032195;28;20087;-75
2021/01/28 10:43:14;;;;;;;4.60;1.40;;;7.50;93.80;;;;;;5032026;28;20072;-75
2021/01/28 10:45:41;;;;;;;6.05;1.90;;;7.60;93.90;;;;;;5032719;28;20075;-75
2021/01/28 10:48:07;;;;;;;6.07;2.25;;;7.60;93.90;;;;;;5031501;28;20069;-76
2021/01/28 10:50:35;;;;;;;5.70;1.58;;;7.60;93.90;;;;;;5032484;28;20068;-75
2021/01/28 10:53:02;;;;;;;6.50;1.60;;;7.60;93.90;;;;;;5013941;28;20381;-76
2021/01/28 10:55:29;;;;;;;4.63;2.10;;;7.60;93.90;;;;;;5014609;28;20114;-75
2021/01/28 10:57:56;;;;;;;5.15;1.73;;;7.60;93.90;;;;;;5031855;28;20033;-75
2021/01/28 11:00:22;;;;;;;4.72;1.50;;;7.60;93.90;;;;;;5032113;28;20037;-75
2021/01/28 11:02:48;;;;;;;2.75;1.27;;;7.60;93.90;;;;;;5014432;28;20042;-75
2021/01/28 11:05:24;;;;;;;3.00;1.35;;;7.60;94.00;;;;;;5031595;28;20064;-75
2021/01/28 11:07:49;;;;;;;3.60;1.20;;;7.60;94.00;;;;;;5031698;28;20057;-74
2021/01/28 11:10:16;;;;;;;5.88;1.38;;;7.60;94.10;;;;;;5031409;28;20137;-75
2021/01/28 11:12:42;;;;;;;1.88;1.15;;;7.60;94.10;;;;;;5032219;28;20073;-75
2021/01/28 11:15:09;;;;;;;4.25;1.90;;;7.60;94.10;;;;;;5031389;28;20070;-75
2021/01/28 11:17:35;;;;;;;2.15;1.00;;;7.60;94.10;;;;;;5032065;28;20021;-75
2021/01/28 11:20:01;;;;;;;3.83;1.20;;;7.60;94.20;;;;;;5013245;28;20033;-73
2021/01/28 11:22:26;;;;;;;2.45;1.10;;;7.60;94.20;;;;;;5014195;28;20018;-75
2021/01/28 11:24:52;;;;;;;1.27;0.75;;;7.60;94.30;;;;;;5014163;28;20108;-74
2021/01/28 11:27:18;;;;;;;4.00;1.20;;;7.60;94.30;;;;;;5013403;28;20631;-74
2021/01/28 11:29:44;;;;;;;2.40;0.82;;;7.60;94.30;;;;;;5014113;28;20107;-75
2021/01/28 11:32:09;;;;;;;1.27;0.90;;;7.60;94.30;;;;;;5031254;28;20438;-74
2021/01/28 11:34:35;;;;;;;1.98;0.98;;;7.60;94.30;;;;;;5031467;28;20052;-75
2021/01/28 11:37:00;;;;;;;1.65;0.82;;;7.60;94.30;;;;;;5013260;28;20092;-75
2021/01/28 11:39:26;;;;;;;3.05;1.10;;;7.60;94.40;;;;;;5031652;28;20026;-75
2021/01/28 11:41:52;;;;;;;3.67;1.70;;;7.60;94.40;;;;;;5031323;28;20096;-74
2021/01/28 11:44:18;;;;;;;0.95;0.63;;;7.70;94.40;;;;;;5030735;28;20175;-75
2021/01/28 11:46:43;;;;;;;2.00;0.82;;;7.70;94.30;;;;;;5031670;28;20476;-76
2021/01/28 11:49:09;;;;;;;1.45;0.70;;;7.70;94.30;;;;;;5030979;28;20022;-76
2021/01/28 11:51:34;;;;;;;1.13;1.00;;;7.70;94.40;;;;;;5031809;28;20104;-76
2021/01/28 11:54:00;;;;;;;1.10;0.75;;;7.70;94.30;;;;;;5013664;28;20056;-77
2021/01/28 11:56:26;;;;;;;0.82;0.80;;;7.70;94.30;;;;;;5031631;28;20044;-75
2021/01/28 11:58:51;;;;;;;2.03;1.02;;;7.80;94.30;;;;;;5031695;28;20021;-76
2021/01/28 12:01:17;;;;;;;4.80;1.40;;;7.80;94.30;;;;;;5013041;28;20036;-76
2021/01/28 12:03:43;;;;;;;1.05;0.93;;;7.80;94.30;;;;;;5031509;28;20030;-77
2021/01/28 12:06:09;;;;;;;1.60;0.75;;;7.80;94.30;;;;;;5030876;28;20350;-77
2021/01/28 12:08:34;;;;;;;1.33;0.90;;;7.80;94.40;;;;;;5014842;28;20104;-77
2021/01/28 12:11:00;;;;;;;1.08;0.80;;;7.90;94.40;;;;;;5035550;28;20115;-76
2021/01/28 12:13:25;;;;;;;2.08;0.70;;;7.90;94.30;;;;;;5017163;28;20377;-77
2021/01/28 12:15:51;;;;;;;2.15;0.80;;;7.90;94.30;;;;;;5035430;28;20036;-75
2021/01/28 12:18:17;;;;;;;1.02;0.90;;;8.00;94.30;;;;;;5034399;28;20492;-76
2021/01/28 12:20:42;;;;;;;2.45;1.00;;;8.00;94.30;;;;;;5034784;28;20465;-76
2021/01/28 12:23:08;;;;;;;1.25;0.90;;;7.90;94.30;;;;;;5034884;28;20052;-76
2021/01/28 12:25:34;;;;;;;2.63;1.08;;;7.90;94.30;;;;;;5035137;28;20041;-75
2021/01/28 12:27:59;;;;;;;2.22;1.05;;;7.90;94.40;;;;;;5035081;28;20056;-75
2021/01/28 12:30:26;;;;;;;1.67;0.95;;;7.90;94.40;;;;;;5016591;28;20029;-76
2021/01/28 12:32:52;;;;;;;2.42;0.90;;;7.90;94.40;;;;;;5035327;28;20026;-75
2021/01/28 12:35:20;;;;;;;1.80;0.93;;;7.80;94.50;;;;;;5016389;28;20452;-75
2021/01/28 12:37:45;;;;;;;1.27;0.80;;;7.80;94.60;;;;;;5034687;28;20497;-75
2021/01/28 12:40:15;;;;;;;3.25;1.35;;;7.90;94.60;;;;;;5034158;28;20056;-76
2021/01/28 12:42:41;;;;;;;2.28;1.13;;;7.80;94.60;;;;;;5034493;28;20497;-76
2021/01/28 12:45:07;;;;;;;1.75;0.90;;;7.80;94.60;;;;;;5034172;28;20028;-76
2021/01/28 12:47:33;;;;;;;3.08;1.30;;;7.90;94.60;;;;;;5035054;28;20462;-76
2021/01/28 12:49:58;;;;;;;1.50;1.00;;;7.90;94.60;;;;;;5035049;28;20063;-76
2021/01/28 12:52:24;;;;;;;1.95;1.10;;;7.90;94.60;;;;;;5016320;28;20279;-75
2021/01/28 12:54:50;;;;;;;2.92;0.98;;;7.90;94.60;;;;;;5016661;28;20021;-75
2021/01/28 12:57:16;;;;;;;1.70;0.80;;;7.90;94.50;;;;;;5033966;28;20036;-76
2021/01/28 12:59:42;;;;;;;1.95;1.02;;;7.90;94.50;;;;;;5034539;28;20026;-75
2021/01/28 13:02:08;;;;;;;2.15;0.90;;;7.90;94.50;;;;;;5016217;28;20052;-76
2021/01/28 13:04:33;;;;;;;1.92;0.95;;;7.90;94.50;;;;;;5034453;28;20032;-76
2021/01/28 13:06:59;;;;;;;1.92;1.00;;;7.90;94.50;;;;;;5015960;28;20385;-76
2021/01/28 13:09:25;;;;;;;1.98;1.05;;;7.90;94.50;;;;;;5034013;28;20021;-77
2021/01/28 13:11:50;;;;;;;1.35;0.82;;;7.90;94.60;;;;;;5016671;28;20350;-76